Time;durP1;ratioP1;P1;durP2;ratioP2;P2;SDS_P1;SDS_P2;PMS_P1;PMS_P2;Temp;Humidity;BMP_temperature;BMP_pressure;BME280_temperature;BME280_humidity;BME280_pressure;Samples;Min_cycle;Max_cycle;Signal;HPM_P1;HPM_P2
2022/07/02 00:00:44;;;;;;;4.20;2.10;;;16.60;99.90;;;;;;6915120;28;20471;-81
2022/07/02 00:04:07;;;;;;;4.25;1.80;;;16.60;99.90;;;;;;6914243;28;20467;-80
2022/07/02 00:07:29;;;;;;;3.88;2.00;;;16.60;99.90;;;;;;6915208;28;20432;-78
2022/07/02 00:10:52;;;;;;;5.28;1.85;;;16.60;99.90;;;;;;6914990;28;20482;-78
2022/07/02 00:14:16;;;;;;;4.78;2.00;;;16.60;99.90;;;;;;6915046;28;20429;-78
2022/07/02 00:17:40;;;;;;;4.53;1.85;;;16.50;99.90;;;;;;6914714;28;20448;-77
2022/07/02 00:21:03;;;;;;;4.72;2.00;;;16.50;99.90;;;;;;6914087;28;20448;-78
2022/07/02 00:24:25;;;;;;;6.13;2.10;;;16.40;99.90;;;;;;6913560;28;20440;-78
2022/07/02 00:27:48;;;;;;;5.93;2.00;;;16.40;99.90;;;;;;6917805;28;20437;-76
2022/07/02 00:31:10;;;;;;;4.00;1.58;;;16.40;99.90;;;;;;6916156;28;20451;-79
2022/07/02 00:34:39;;;;;;;3.83;1.20;;;16.40;99.90;;;;;;6916032;28;20433;-78
2022/07/02 00:38:03;;;;;;;4.97;1.42;;;16.40;99.90;;;;;;6915310;28;20515;-77
2022/07/02 00:41:28;;;;;;;5.60;1.40;;;16.40;99.90;;;;;;6908449;28;20473;-76
2022/07/02 00:44:51;;;;;;;4.38;1.50;;;16.40;99.90;;;;;;6896970;28;20464;-78
2022/07/02 00:48:14;;;;;;;3.35;1.40;;;16.40;99.90;;;;;;6914724;28;20428;-78
2022/07/02 00:51:38;;;;;;;3.97;1.30;;;16.50;99.90;;;;;;6914108;28;20492;-77
2022/07/02 00:55:00;;;;;;;4.25;1.20;;;16.50;99.90;;;;;;6914095;28;20440;-78
2022/07/02 00:58:22;;;;;;;4.40;1.20;;;16.60;99.90;;;;;;6915187;28;20444;-79
2022/07/02 01:01:44;;;;;;;5.68;1.42;;;16.50;99.90;;;;;;6914449;28;20472;-78
2022/07/02 01:05:08;;;;;;;6.50;1.43;;;16.30;99.90;;;;;;6914147;28;20943;-78
2022/07/02 01:12:16;;;;;;;9.23;1.50;;;16.10;99.90;;;;;;6913997;28;20787;-80
2022/07/02 01:15:39;;;;;;;4.20;1.43;;;16.10;99.90;;;;;;6913573;28;20434;-80
2022/07/02 01:19:01;;;;;;;5.72;1.55;;;16.10;99.90;;;;;;6914061;28;20432;-80
2022/07/02 01:22:26;;;;;;;4.97;1.50;;;16.10;99.90;;;;;;6914879;28;20475;-76
2022/07/02 01:25:51;;;;;;;5.03;1.40;;;16.20;99.90;;;;;;6913756;28;20437;-78
2022/07/02 01:29:13;;;;;;;3.28;1.48;;;16.20;99.90;;;;;;6913267;28;20432;-79
2022/07/02 01:32:35;;;;;;;4.07;1.40;;;16.30;99.90;;;;;;6913838;28;20495;-80
2022/07/02 01:35:57;;;;;;;5.82;1.48;;;16.20;99.90;;;;;;6915777;28;20499;-79
2022/07/02 01:39:26;;;;;;;4.78;1.55;;;16.20;99.90;;;;;;6917825;28;20440;-78
2022/07/02 01:42:48;;;;;;;3.70;1.50;;;16.20;99.90;;;;;;6918856;28;20558;-79
2022/07/02 01:46:10;;;;;;;5.18;1.50;;;16.20;99.90;;;;;;6918701;28;20456;-78
2022/07/02 01:49:32;;;;;;;3.43;1.40;;;16.20;99.90;;;;;;6919639;28;20929;-79
2022/07/02 01:52:56;;;;;;;4.70;1.48;;;16.20;99.90;;;;;;6919363;28;20925;-80
2022/07/02 01:56:19;;;;;;;4.07;1.40;;;16.20;99.90;;;;;;6918248;28;20902;-76
2022/07/02 01:59:42;;;;;;;4.87;1.33;;;16.10;99.90;;;;;;6916578;28;20540;-79
2022/07/02 02:03:04;;;;;;;3.70;1.30;;;16.00;99.90;;;;;;6917421;28;20432;-77
2022/07/02 02:06:26;;;;;;;4.28;1.30;;;16.00;99.90;;;;;;6918218;28;20823;-77
2022/07/02 02:09:48;;;;;;;4.13;1.40;;;16.00;99.90;;;;;;6915974;28;20436;-76
2022/07/02 02:13:12;;;;;;;3.50;1.30;;;15.70;99.90;;;;;;6918719;28;20815;-78
2022/07/02 02:16:34;;;;;;;3.83;1.30;;;15.70;99.90;;;;;;6915845;28;21009;-78
2022/07/02 02:19:56;;;;;;;3.72;1.30;;;15.60;99.90;;;;;;6918882;28;20452;-77
2022/07/02 02:23:19;;;;;;;4.05;1.30;;;15.50;99.90;;;;;;6917656;28;20464;-79
2022/07/02 02:26:41;;;;;;;5.00;1.35;;;15.50;99.90;;;;;;6917431;28;20933;-78
2022/07/02 02:30:07;;;;;;;3.85;1.63;;;15.60;99.90;;;;;;6916690;28;20918;-78
2022/07/02 02:33:29;;;;;;;4.15;1.42;;;15.60;99.90;;;;;;6917159;28;20444;-78
2022/07/02 02:36:51;;;;;;;5.82;1.80;;;15.60;99.90;;;;;;6917495;28;20428;-78
2022/07/02 02:40:13;;;;;;;4.97;1.40;;;15.70;99.90;;;;;;6916111;28;20522;-78
2022/07/02 02:43:37;;;;;;;3.58;1.30;;;15.70;99.90;;;;;;6916316;28;20456;-78
2022/07/02 02:47:00;;;;;;;4.72;1.48;;;15.70;99.90;;;;;;6914408;28;20810;-78
2022/07/02 02:50:22;;;;;;;3.55;1.50;;;15.70;99.90;;;;;;6916851;28;20452;-79
2022/07/02 02:53:45;;;;;;;4.72;1.35;;;15.50;99.90;;;;;;6917291;28;20447;-78
2022/07/02 02:57:07;;;;;;;4.85;1.45;;;15.40;99.90;;;;;;6915567;28;20442;-77
2022/07/02 03:00:29;;;;;;;4.22;1.40;;;15.40;99.90;;;;;;6912837;28;20937;-78
2022/07/02 03:03:52;;;;;;;3.97;1.38;;;15.40;99.90;;;;;;6915940;28;20447;-78
2022/07/02 03:07:14;;;;;;;3.58;1.40;;;15.40;99.90;;;;;;6917266;28;20425;-78
2022/07/02 03:10:36;;;;;;;3.35;1.23;;;15.30;99.90;;;;;;6915328;28;20470;-78
2022/07/02 03:13:59;;;;;;;4.47;1.50;;;15.30;99.90;;;;;;6898191;28;20485;-79
2022/07/02 03:17:21;;;;;;;4.68;1.48;;;15.20;99.90;;;;;;6910928;28;21252;-78
2022/07/02 03:20:44;;;;;;;5.88;1.48;;;15.20;99.90;;;;;;6915411;28;20437;-78
2022/07/02 03:24:07;;;;;;;3.95;1.35;;;15.20;99.90;;;;;;6914908;28;20906;-78
2022/07/02 03:27:30;;;;;;;4.07;1.40;;;15.20;99.90;;;;;;6915500;28;20443;-78
2022/07/02 03:30:52;;;;;;;4.57;1.42;;;15.20;99.90;;;;;;6915964;28;20508;-79
2022/07/02 03:34:14;;;;;;;6.63;1.50;;;15.30;99.90;;;;;;6916166;28;20464;-77
2022/07/02 03:37:37;;;;;;;3.83;1.40;;;15.20;99.90;;;;;;6914406;28;20782;-76
2022/07/02 03:40:59;;;;;;;4.80;1.60;;;15.10;99.90;;;;;;6916219;28;20429;-77
2022/07/02 03:44:22;;;;;;;4.90;1.58;;;15.10;99.90;;;;;;6913772;28;20504;-77
2022/07/02 03:47:44;;;;;;;5.05;1.42;;;15.00;99.90;;;;;;6914989;28;20546;-79
2022/07/02 03:51:06;;;;;;;3.97;1.40;;;15.10;99.90;;;;;;6916660;28;20543;-77
2022/07/02 03:54:29;;;;;;;3.27;1.50;;;15.10;99.90;;;;;;6913954;28;20953;-79
2022/07/02 03:57:51;;;;;;;4.03;1.52;;;15.10;99.90;;;;;;6913763;28;20589;-79
2022/07/02 04:01:13;;;;;;;4.38;1.48;;;15.00;99.90;;;;;;6903177;28;20439;-79
2022/07/02 04:04:35;;;;;;;6.85;1.70;;;15.00;99.90;;;;;;6913774;28;20436;-77
2022/07/02 04:07:57;;;;;;;4.40;1.40;;;14.90;99.90;;;;;;6912934;28;20436;-79
2022/07/02 04:11:21;;;;;;;4.40;1.63;;;14.80;99.90;;;;;;6914064;28;20911;-79
2022/07/02 04:14:43;;;;;;;8.40;2.40;;;14.80;99.90;;;;;;6912837;28;20917;-78
2022/07/02 04:18:05;;;;;;;8.90;2.33;;;14.70;99.90;;;;;;6913092;28;20484;-79
2022/07/02 04:21:27;;;;;;;11.85;3.65;;;14.60;99.90;;;;;;6914846;28;20435;-78
2022/07/02 04:24:49;;;;;;;7.93;3.60;;;14.70;99.90;;;;;;6914812;28;20439;-80
2022/07/02 04:28:12;;;;;;;11.10;3.40;;;14.70;99.90;;;;;;6912706;28;20428;-79
2022/07/02 04:31:35;;;;;;;5.47;2.90;;;14.80;99.90;;;;;;6912951;28;20961;-79
2022/07/02 04:34:57;;;;;;;7.88;2.90;;;14.90;99.90;;;;;;6915076;28;20478;-78
2022/07/02 04:38:19;;;;;;;7.05;2.60;;;14.90;99.90;;;;;;6909630;28;21046;-78
2022/07/02 04:41:41;;;;;;;5.82;2.70;;;15.00;99.90;;;;;;6911529;28;20440;-80
2022/07/02 04:45:06;;;;;;;7.00;2.70;;;15.00;99.90;;;;;;6910687;28;20440;-80
2022/07/02 04:48:28;;;;;;;6.90;2.60;;;15.20;99.90;;;;;;6929683;28;20427;-78
2022/07/02 04:51:51;;;;;;;7.78;2.90;;;15.20;99.90;;;;;;6914458;28;20475;-79
2022/07/02 04:55:14;;;;;;;10.77;3.10;;;15.20;99.90;;;;;;6911823;28;20443;-78
2022/07/02 04:58:36;;;;;;;5.40;3.00;;;15.10;99.90;;;;;;6910925;28;20903;-80
2022/07/02 05:01:59;;;;;;;13.95;3.20;;;15.10;99.90;;;;;;6911977;28;20479;-80
2022/07/02 05:05:22;;;;;;;8.05;2.70;;;15.10;99.90;;;;;;6911232;28;20795;-79
2022/07/02 05:08:44;;;;;;;5.60;2.50;;;15.00;99.90;;;;;;6910815;28;20802;-77
2022/07/02 05:12:08;;;;;;;5.77;2.67;;;15.00;99.90;;;;;;6903538;28;20444;-80
2022/07/02 05:15:30;;;;;;;12.23;2.80;;;15.00;99.90;;;;;;6908080;28;20434;-80
2022/07/02 05:18:53;;;;;;;6.97;2.42;;;15.00;99.90;;;;;;6897341;28;20436;-79
2022/07/02 05:22:15;;;;;;;8.80;2.57;;;15.00;99.90;;;;;;6915712;28;20925;-79
2022/07/02 05:25:37;;;;;;;14.52;2.80;;;14.90;99.90;;;;;;6918917;28;20440;-79
2022/07/02 05:28:59;;;;;;;26.15;2.97;;;14.90;99.90;;;;;;6917353;28;20485;-78
2022/07/02 05:32:21;;;;;;;12.65;2.90;;;15.00;99.90;;;;;;6909279;28;20749;-78
2022/07/02 05:35:45;;;;;;;13.43;2.80;;;15.00;99.90;;;;;;6911216;28;20539;-79
2022/07/02 05:39:07;;;;;;;4.77;2.43;;;15.10;99.90;;;;;;6915200;28;20534;-79
2022/07/02 05:42:29;;;;;;;5.60;2.50;;;15.10;99.90;;;;;;6915415;28;20439;-79
2022/07/02 05:45:51;;;;;;;8.27;2.53;;;15.20;99.90;;;;;;6914772;28;20499;-79
2022/07/02 05:49:13;;;;;;;10.65;2.70;;;15.30;99.90;;;;;;6916526;28;20460;-79
2022/07/02 05:52:37;;;;;;;4.22;2.90;;;15.40;99.90;;;;;;6918141;28;20465;-79
2022/07/02 05:55:59;;;;;;;24.98;3.63;;;15.40;99.90;;;;;;6918671;28;20428;-78
2022/07/02 05:59:22;;;;;;;10.10;3.27;;;15.40;99.90;;;;;;6909603;28;20476;-79
2022/07/02 06:02:44;;;;;;;5.28;3.10;;;15.30;99.90;;;;;;6893901;28;20434;-80
2022/07/02 06:09:48;;;;;;;6.57;3.40;;;15.50;99.90;;;;;;6899928;28;20914;-78
2022/07/02 06:13:10;;;;;;;5.82;3.58;;;15.60;99.90;;;;;;6915253;28;20902;-81
2022/07/02 06:16:33;;;;;;;5.50;3.63;;;15.70;99.90;;;;;;6911356;28;20438;-77
2022/07/02 06:19:55;;;;;;;6.07;3.40;;;15.80;99.90;;;;;;6909190;28;20436;-80
2022/07/02 06:23:19;;;;;;;4.72;3.55;;;15.90;99.90;;;;;;6906668;28;20573;-77
2022/07/02 06:26:43;;;;;;;6.05;3.60;;;16.10;99.90;;;;;;6914992;28;20433;-78
2022/07/02 06:30:07;;;;;;;5.20;3.65;;;16.10;99.90;;;;;;6909435;28;20517;-76
2022/07/02 06:33:29;;;;;;;6.53;3.70;;;16.20;99.90;;;;;;6896156;28;20862;-77
2022/07/02 06:36:51;;;;;;;5.45;3.00;;;16.20;99.90;;;;;;6904249;28;20453;-76
2022/07/02 06:40:13;;;;;;;5.53;3.00;;;16.30;99.90;;;;;;6886553;28;20477;-76
2022/07/02 06:43:37;;;;;;;4.57;3.00;;;16.30;99.90;;;;;;6890416;28;20439;-77
2022/07/02 06:46:59;;;;;;;4.60;3.00;;;16.40;99.90;;;;;;6907012;28;20445;-79
2022/07/02 06:50:21;;;;;;;4.80;2.90;;;16.40;99.90;;;;;;6898977;28;20483;-80
2022/07/02 06:53:43;;;;;;;7.80;2.70;;;16.50;99.90;;;;;;6907416;28;20507;-80
2022/07/02 06:57:06;;;;;;;4.20;2.60;;;16.60;99.90;;;;;;6907368;28;20467;-81
2022/07/02 07:00:30;;;;;;;4.77;2.50;;;16.70;99.90;;;;;;6901001;28;20530;-79
2022/07/02 07:03:52;;;;;;;3.90;2.20;;;16.80;99.90;;;;;;6910911;28;20934;-80
2022/07/02 07:07:14;;;;;;;6.53;3.40;;;16.90;99.90;;;;;;6911232;28;20445;-79
2022/07/02 07:10:36;;;;;;;5.07;2.93;;;17.00;99.90;;;;;;6912096;28;20497;-78
2022/07/02 07:13:58;;;;;;;6.30;3.15;;;17.10;99.90;;;;;;6911749;28;20472;-78
2022/07/02 07:17:21;;;;;;;7.53;3.90;;;17.10;99.90;;;;;;6912628;28;20479;-79
2022/07/02 07:20:45;;;;;;;5.20;2.87;;;17.20;99.90;;;;;;6908022;28;20468;-79
2022/07/02 07:24:09;;;;;;;3.95;2.00;;;17.30;99.90;;;;;;6910108;28;20914;-80
2022/07/02 07:27:31;;;;;;;4.22;1.98;;;17.50;99.90;;;;;;6911406;28;20464;-77
2022/07/02 07:30:53;;;;;;;4.30;2.00;;;17.70;99.90;;;;;;6909471;28;20472;-80
2022/07/02 07:34:16;;;;;;;3.78;1.70;;;17.70;99.90;;;;;;6908192;28;20481;-79
2022/07/02 07:37:38;;;;;;;3.88;1.80;;;17.90;99.90;;;;;;6905727;28;20539;-79
2022/07/02 07:41:00;;;;;;;4.47;1.65;;;18.00;99.90;;;;;;6910383;28;20439;-79
2022/07/02 07:44:22;;;;;;;8.10;2.83;;;18.20;99.90;;;;;;6898358;28;21193;-77
2022/07/02 07:47:44;;;;;;;7.95;2.25;;;18.30;99.90;;;;;;6909655;28;20479;-75
2022/07/02 07:51:08;;;;;;;5.75;2.00;;;18.40;99.90;;;;;;6909282;28;20478;-75
2022/07/02 07:54:30;;;;;;;3.90;1.70;;;18.60;99.90;;;;;;6909716;28;20541;-75
2022/07/02 07:57:53;;;;;;;3.65;1.48;;;18.70;99.90;;;;;;6888710;28;20475;-80
2022/07/02 08:01:15;;;;;;;3.35;1.42;;;18.70;99.90;;;;;;6904190;28;20498;-78
2022/07/02 08:04:37;;;;;;;4.78;1.30;;;18.90;99.90;;;;;;6896170;28;20440;-80
2022/07/02 08:08:00;;;;;;;4.15;1.20;;;19.00;99.90;;;;;;6907178;28;20472;-79
2022/07/02 08:11:23;;;;;;;4.57;1.35;;;19.10;99.90;;;;;;6909355;28;20443;-76
2022/07/02 08:14:44;;;;;;;4.13;1.20;;;19.20;99.90;;;;;;6905454;28;20471;-76
2022/07/02 08:18:08;;;;;;;3.63;1.00;;;19.30;99.90;;;;;;6908307;28;20523;-78
2022/07/02 08:21:30;;;;;;;4.13;1.00;;;19.40;99.90;;;;;;6909058;28;20441;-78
2022/07/02 08:24:53;;;;;;;3.20;0.95;;;19.50;99.90;;;;;;6904474;28;20472;-75
2022/07/02 08:28:17;;;;;;;2.33;0.80;;;19.60;99.70;;;;;;6907077;28;20777;-79
2022/07/02 08:31:39;;;;;;;3.83;0.90;;;19.70;98.30;;;;;;6908892;28;20444;-76
2022/07/02 08:35:02;;;;;;;6.40;2.28;;;19.80;99.30;;;;;;6909600;28;20960;-79
2022/07/02 08:38:24;;;;;;;20.67;7.75;;;20.00;97.70;;;;;;6908871;28;20523;-79
2022/07/02 08:41:50;;;;;;;10.73;4.47;;;20.10;97.80;;;;;;6909597;28;20479;-80
2022/07/02 08:45:13;;;;;;;9.52;3.53;;;20.20;97.70;;;;;;6907769;28;20476;-77
2022/07/02 08:48:35;;;;;;;10.55;3.90;;;20.30;95.30;;;;;;6907618;28;20479;-78
2022/07/02 08:52:03;;;;;;;6.33;2.33;;;20.40;95.80;;;;;;6909186;28;20436;-78
2022/07/02 08:55:24;;;;;;;5.43;1.70;;;20.40;94.50;;;;;;6909056;28;20854;-80
2022/07/02 08:58:49;;;;;;;4.80;1.80;;;20.50;92.80;;;;;;6906875;28;20484;-76
2022/07/02 09:02:14;;;;;;;10.68;3.70;;;20.50;92.60;;;;;;6909300;28;20441;-79
2022/07/02 09:05:38;;;;;;;4.07;1.27;;;20.60;92.50;;;;;;6907815;28;20437;-79
2022/07/02 09:09:00;;;;;;;6.78;2.47;;;20.60;91.60;;;;;;6907930;28;20809;-78
2022/07/02 09:12:23;;;;;;;11.07;3.60;;;20.70;93.60;;;;;;6908354;28;20531;-79
2022/07/02 09:15:47;;;;;;;6.70;2.08;;;20.80;92.40;;;;;;6906791;28;20455;-77
2022/07/02 09:19:09;;;;;;;4.40;1.38;;;20.90;91.90;;;;;;6906986;28;20467;-80
2022/07/02 09:22:34;;;;;;;3.78;1.30;;;20.90;90.90;;;;;;6907414;28;20479;-79
2022/07/02 09:25:56;;;;;;;2.95;0.85;;;20.90;90.10;;;;;;6909424;28;20466;-80
2022/07/02 09:29:18;;;;;;;2.38;0.70;;;21.00;89.40;;;;;;6909319;28;20437;-79
2022/07/02 09:32:44;;;;;;;2.10;0.80;;;21.00;88.30;;;;;;6908112;28;20500;-81
2022/07/02 09:36:12;;;;;;;2.45;0.70;;;21.00;87.70;;;;;;6909019;28;20862;-81
2022/07/02 09:39:34;;;;;;;3.47;1.00;;;21.10;86.10;;;;;;6923318;28;20882;-79
2022/07/02 09:42:56;;;;;;;1.63;0.65;;;21.10;84.40;;;;;;6912752;28;20487;-79
2022/07/02 09:46:20;;;;;;;2.17;0.77;;;21.20;86.50;;;;;;6911464;28;20469;-81
2022/07/02 09:49:51;;;;;;;2.53;0.70;;;21.10;86.30;;;;;;6911916;28;20500;-82
2022/07/02 09:53:13;;;;;;;1.47;0.60;;;21.20;84.10;;;;;;6912476;28;20553;-79
2022/07/02 09:56:36;;;;;;;1.65;0.50;;;21.30;84.50;;;;;;6912241;28;20846;-77
2022/07/02 10:00:06;;;;;;;1.02;0.50;;;21.40;83.00;;;;;;6918007;28;20449;-80
2022/07/02 10:03:28;;;;;;;1.63;0.70;;;21.40;81.00;;;;;;6890355;28;20442;-80
2022/07/02 10:06:52;;;;;;;2.00;0.68;;;21.40;81.70;;;;;;6911120;28;20495;-80
2022/07/02 10:10:15;;;;;;;1.38;0.50;;;21.50;80.50;;;;;;6917685;28;20451;-78
2022/07/02 10:13:37;;;;;;;2.13;0.80;;;21.60;82.80;;;;;;6916146;28;20496;-79
2022/07/02 10:17:01;;;;;;;2.38;0.70;;;21.60;82.40;;;;;;6915679;28;20503;-79
2022/07/02 10:20:23;;;;;;;1.73;0.70;;;21.80;80.90;;;;;;6917106;28;20559;-79
2022/07/02 10:23:47;;;;;;;1.27;0.50;;;21.80;79.20;;;;;;6917101;28;20447;-79
2022/07/02 10:27:10;;;;;;;1.53;0.67;;;21.90;80.40;;;;;;6917264;28;20914;-80
2022/07/02 10:30:32;;;;;;;2.22;0.70;;;21.90;76.40;;;;;;6915526;28;20469;-79
2022/07/02 10:34:03;;;;;;;2.92;0.50;;;21.80;70.60;;;;;;6916548;28;20472;-79
2022/07/02 10:37:26;;;;;;;1.55;0.50;;;21.90;72.90;;;;;;6916854;28;20827;-80
2022/07/02 10:40:50;;;;;;;2.05;0.50;;;21.90;70.80;;;;;;6915714;28;20512;-79
2022/07/02 10:44:12;;;;;;;2.40;0.50;;;21.90;74.10;;;;;;6915008;28;20511;-79
2022/07/02 10:47:34;;;;;;;1.87;0.50;;;22.00;72.40;;;;;;6918671;28;20487;-80
2022/07/02 10:50:58;;;;;;;1.80;0.57;;;22.10;71.30;;;;;;6916740;28;20428;-80
2022/07/02 10:54:31;;;;;;;1.65;0.50;;;22.10;69.30;;;;;;6916569;28;20459;-79
2022/07/02 10:57:59;;;;;;;2.05;0.75;;;22.20;72.90;;;;;;6914835;28;20464;-78
2022/07/02 11:01:22;;;;;;;2.20;0.70;;;22.20;72.00;;;;;;6912899;28;20476;-79
2022/07/02 11:04:44;;;;;;;2.08;0.52;;;22.30;71.50;;;;;;6913062;28;20949;-79
2022/07/02 11:08:06;;;;;;;1.73;0.50;;;22.30;69.50;;;;;;6910893;28;20479;-77
2022/07/02 11:11:52;;;;;;;2.35;0.75;;;22.30;69.40;;;;;;6900979;28;20473;-80
2022/07/02 11:15:21;;;;;;;3.53;1.10;;;22.40;71.80;;;;;;6913505;28;20583;-79
2022/07/02 11:18:47;;;;;;;2.72;0.93;;;22.50;75.70;;;;;;6914127;28;20469;-79
2022/07/02 11:22:09;;;;;;;1.95;0.70;;;22.50;74.40;;;;;;6914287;28;20503;-79
2022/07/02 11:25:32;;;;;;;2.28;0.70;;;22.50;74.00;;;;;;6913431;28;20436;-80
2022/07/02 11:28:56;;;;;;;5.00;1.52;;;22.60;71.50;;;;;;6912386;28;20458;-81
2022/07/02 11:32:19;;;;;;;1.93;0.70;;;22.60;72.20;;;;;;6914244;28;20444;-80
2022/07/02 11:35:43;;;;;;;2.53;0.88;;;22.60;74.60;;;;;;6914376;28;20480;-79
2022/07/02 11:39:10;;;;;;;4.30;1.73;;;22.70;73.60;;;;;;6913180;28;20433;-80
2022/07/02 11:42:37;;;;;;;3.53;1.20;;;22.80;74.20;;;;;;6914031;28;20857;-77
2022/07/02 11:45:59;;;;;;;1.75;0.70;;;22.80;73.70;;;;;;6913835;28;20952;-79
2022/07/02 11:49:25;;;;;;;3.90;0.80;;;22.80;72.10;;;;;;6914432;28;20477;-80
2022/07/02 11:52:48;;;;;;;2.15;0.70;;;22.90;74.20;;;;;;6909632;28;20440;-79
2022/07/02 11:56:13;;;;;;;2.08;0.68;;;23.00;75.10;;;;;;6909078;28;20440;-80
2022/07/02 11:59:35;;;;;;;2.58;0.82;;;23.10;75.70;;;;;;6909468;28;20433;-80
2022/07/02 12:02:57;;;;;;;1.58;0.70;;;23.20;74.70;;;;;;6910012;28;20478;-79
2022/07/02 12:06:22;;;;;;;1.65;0.70;;;23.20;73.30;;;;;;6907906;28;20436;-79
2022/07/02 12:09:44;;;;;;;2.35;0.80;;;23.20;74.00;;;;;;6909290;28;20906;-81
2022/07/02 12:13:08;;;;;;;3.15;0.80;;;23.30;73.10;;;;;;6909572;28;20443;-78
2022/07/02 12:16:31;;;;;;;2.53;0.70;;;23.50;74.40;;;;;;6910269;28;20451;-80
2022/07/02 12:19:56;;;;;;;1.73;0.75;;;23.50;77.40;;;;;;6908822;28;20981;-78
2022/07/02 12:23:20;;;;;;;3.85;1.08;;;23.70;75.10;;;;;;6909013;28;20441;-81
2022/07/02 12:26:46;;;;;;;2.10;0.80;;;23.80;73.30;;;;;;6908325;28;20440;-79
2022/07/02 12:30:15;;;;;;;1.90;0.70;;;23.80;72.40;;;;;;6910034;28;20433;-80
2022/07/02 12:33:37;;;;;;;2.17;0.70;;;24.00;75.10;;;;;;6905705;28;20441;-80
2022/07/02 12:37:00;;;;;;;4.57;1.63;;;24.10;74.00;;;;;;6909045;28;20476;-78
2022/07/02 12:40:23;;;;;;;3.15;1.10;;;24.20;73.50;;;;;;6923485;28;20861;-79
2022/07/02 12:43:55;;;;;;;3.85;1.58;;;24.30;73.80;;;;;;6913067;28;20789;-79
2022/07/02 12:47:28;;;;;;;3.10;0.70;;;24.40;74.80;;;;;;6909433;28;20961;-80
2022/07/02 12:50:51;;;;;;;2.28;0.70;;;24.50;72.40;;;;;;6917342;28;20443;-80
2022/07/02 12:54:13;;;;;;;2.35;0.50;;;24.60;69.80;;;;;;6908101;28;20437;-80
2022/07/02 12:57:36;;;;;;;2.53;0.60;;;24.80;67.20;;;;;;6908700;28;20444;-78
2022/07/02 13:00:59;;;;;;;1.55;0.60;;;24.90;66.90;;;;;;6910149;28;20851;-80
2022/07/02 13:04:21;;;;;;;2.95;0.60;;;25.00;67.90;;;;;;6908898;28;20444;-78
2022/07/02 13:07:43;;;;;;;1.60;0.60;;;25.10;64.90;;;;;;6907700;28;20484;-78
2022/07/02 13:11:05;;;;;;;2.25;0.50;;;25.20;65.50;;;;;;6905242;28;20811;-78
2022/07/02 13:14:29;;;;;;;1.00;0.50;;;25.30;68.40;;;;;;6907035;28;20476;-81
2022/07/02 13:17:51;;;;;;;2.30;0.80;;;25.40;68.00;;;;;;6908164;28;20436;-74
2022/07/02 13:21:13;;;;;;;1.63;0.47;;;25.50;64.90;;;;;;6906714;28;20464;-78
2022/07/02 13:24:35;;;;;;;2.28;0.52;;;25.50;60.30;;;;;;6909721;28;20440;-80
2022/07/02 13:27:57;;;;;;;1.40;0.55;;;25.50;61.00;;;;;;6908014;28;20469;-79
2022/07/02 13:31:20;;;;;;;1.73;0.50;;;25.50;62.00;;;;;;6909642;28;21104;-80
2022/07/02 13:34:43;;;;;;;1.67;0.50;;;25.50;63.10;;;;;;6914627;28;20598;-80
2022/07/02 13:38:05;;;;;;;1.65;0.60;;;25.70;63.20;;;;;;6915100;28;20440;-81
2022/07/02 13:41:27;;;;;;;1.30;0.50;;;25.90;64.60;;;;;;6912785;28;20479;-78
2022/07/02 13:44:49;;;;;;;4.80;0.70;;;25.90;64.70;;;;;;6910096;28;20476;-79
2022/07/02 13:48:13;;;;;;;1.88;0.50;;;26.00;63.50;;;;;;6912241;28;20587;-79
2022/07/02 13:51:35;;;;;;;2.08;0.70;;;25.90;59.90;;;;;;6908717;28;20436;-78
2022/07/02 13:54:57;;;;;;;1.30;0.50;;;26.20;63.40;;;;;;6913075;28;20479;-78
2022/07/02 13:58:19;;;;;;;1.58;0.55;;;26.30;61.60;;;;;;6910315;28;20475;-81
2022/07/02 14:01:41;;;;;;;2.20;0.70;;;26.40;63.40;;;;;;6905661;28;21239;-78
2022/07/02 14:05:06;;;;;;;2.30;0.70;;;26.60;63.30;;;;;;6901142;28;20576;-78
2022/07/02 14:08:28;;;;;;;1.67;0.70;;;26.70;60.30;;;;;;6908847;28;20525;-78
2022/07/02 14:11:51;;;;;;;3.50;1.60;;;26.60;61.00;;;;;;6908361;28;20468;-80
2022/07/02 14:15:13;;;;;;;3.90;1.85;;;26.50;61.20;;;;;;6903597;28;20467;-80
2022/07/02 14:18:35;;;;;;;5.10;2.85;;;26.70;60.00;;;;;;6911760;28;20440;-79
2022/07/02 14:21:59;;;;;;;2.72;0.90;;;26.70;60.80;;;;;;6912776;28;20482;-80
2022/07/02 14:25:22;;;;;;;1.77;0.70;;;26.80;58.80;;;;;;6917791;28;20449;-77
2022/07/02 14:28:45;;;;;;;2.17;0.60;;;26.80;57.40;;;;;;6912230;28;20499;-80
2022/07/02 14:32:08;;;;;;;1.50;0.60;;;26.90;60.10;;;;;;6910535;28;20482;-79
2022/07/02 14:35:30;;;;;;;2.03;0.70;;;27.10;61.50;;;;;;6912330;28;20444;-80
2022/07/02 14:38:55;;;;;;;2.25;0.70;;;27.10;55.90;;;;;;6905169;28;20441;-79
2022/07/02 14:42:17;;;;;;;2.20;0.70;;;27.00;54.50;;;;;;6911317;28;20479;-79
2022/07/02 14:45:39;;;;;;;2.43;0.83;;;27.00;55.50;;;;;;6905963;28;20437;-80
2022/07/02 14:49:02;;;;;;;2.70;0.70;;;27.20;58.10;;;;;;6906908;28;20443;-80
2022/07/02 14:52:24;;;;;;;2.07;0.60;;;27.30;56.70;;;;;;6912671;28;20446;-80
2022/07/02 14:55:47;;;;;;;2.00;0.73;;;27.40;56.60;;;;;;6912268;28;20973;-78
2022/07/02 14:59:12;;;;;;;2.40;0.70;;;27.40;54.40;;;;;;6910371;28;20459;-79
2022/07/02 15:02:34;;;;;;;2.03;0.68;;;27.50;54.70;;;;;;6911550;28;20469;-78
2022/07/02 15:05:57;;;;;;;2.08;0.80;;;27.70;54.90;;;;;;6910661;28;20443;-80
2022/07/02 15:09:22;;;;;;;2.00;0.70;;;27.80;54.20;;;;;;6910407;28;20443;-80
2022/07/02 15:12:45;;;;;;;2.03;0.90;;;27.80;55.10;;;;;;6911024;28;20465;-76
2022/07/02 15:16:07;;;;;;;2.90;0.80;;;28.00;54.70;;;;;;6912453;28;20942;-80
2022/07/02 15:19:29;;;;;;;1.60;0.70;;;28.10;55.30;;;;;;6915035;28;20482;-80
2022/07/02 15:22:56;;;;;;;2.33;0.70;;;28.10;54.80;;;;;;6913126;28;20432;-79
2022/07/02 15:26:20;;;;;;;2.65;0.80;;;28.10;55.90;;;;;;6911870;28;20551;-79
2022/07/02 15:29:43;;;;;;;3.33;0.80;;;28.00;54.40;;;;;;6912827;28;20802;-77
2022/07/02 15:33:06;;;;;;;2.30;0.60;;;28.10;53.20;;;;;;6914036;28;20444;-79
2022/07/02 15:36:28;;;;;;;2.67;0.67;;;28.30;55.30;;;;;;6915177;28;20444;-78
2022/07/02 15:39:51;;;;;;;1.30;0.52;;;28.30;53.30;;;;;;6925734;28;20433;-80
2022/07/02 15:43:15;;;;;;;2.42;0.70;;;28.30;53.10;;;;;;6913583;28;20564;-79
2022/07/02 15:46:41;;;;;;;1.85;0.60;;;28.30;54.70;;;;;;6905628;28;20457;-80
2022/07/02 15:50:03;;;;;;;4.43;2.10;;;28.50;53.90;;;;;;6913470;28;20440;-79
2022/07/02 15:53:29;;;;;;;24.52;16.05;;;28.50;53.10;;;;;;6911721;28;20494;-76
2022/07/02 15:57:01;;;;;;;2.97;0.90;;;28.70;56.70;;;;;;6912623;28;20441;-81
2022/07/02 16:00:23;;;;;;;3.90;1.20;;;29.00;52.50;;;;;;6912651;28;20464;-80
2022/07/02 16:03:59;;;;;;;2.20;0.70;;;29.60;53.50;;;;;;6900855;28;20518;-80
2022/07/02 16:07:23;;;;;;;1.58;0.65;;;30.10;52.70;;;;;;6911063;28;20447;-77
2022/07/02 16:10:45;;;;;;;2.83;0.70;;;30.10;52.20;;;;;;6913643;28;20455;-80
2022/07/02 16:14:09;;;;;;;2.17;0.60;;;29.70;55.20;;;;;;6912783;28;20436;-80
2022/07/02 16:17:31;;;;;;;2.67;0.85;;;29.60;55.30;;;;;;6910503;28;20803;-80
2022/07/02 16:20:55;;;;;;;2.37;0.93;;;29.60;53.10;;;;;;6912162;28;20436;-79
2022/07/02 16:24:21;;;;;;;2.10;0.80;;;29.70;53.70;;;;;;6910867;28;20471;-78
2022/07/02 16:27:44;;;;;;;2.00;0.90;;;29.80;54.20;;;;;;6909757;28;20931;-77
2022/07/02 16:31:07;;;;;;;1.33;0.60;;;29.90;53.40;;;;;;6909578;28;20516;-77
2022/07/02 16:34:42;;;;;;;2.70;0.80;;;30.00;53.40;;;;;;6916339;28;20439;-79
2022/07/02 16:38:09;;;;;;;2.17;0.80;;;30.00;54.90;;;;;;6905549;28;20453;-79
2022/07/02 16:41:32;;;;;;;6.38;2.95;;;30.00;53.00;;;;;;6914000;28;20465;-78
2022/07/02 16:44:55;;;;;;;14.75;9.60;;;30.00;52.20;;;;;;6911791;28;20445;-79
2022/07/02 16:48:17;;;;;;;8.33;4.70;;;30.00;54.60;;;;;;6910902;28;20560;-79
2022/07/02 16:51:40;;;;;;;3.90;1.40;;;30.30;53.50;;;;;;6909331;28;20452;-78
2022/07/02 16:55:06;;;;;;;2.50;0.80;;;30.30;53.70;;;;;;6908616;28;20515;-80
2022/07/02 16:58:28;;;;;;;2.15;0.82;;;30.40;52.90;;;;;;6890558;28;20441;-79
2022/07/02 17:01:52;;;;;;;1.80;0.80;;;30.60;52.30;;;;;;6896722;28;20483;-80
2022/07/02 17:05:15;;;;;;;2.60;0.90;;;30.70;52.10;;;;;;6908297;28;20937;-78
2022/07/02 17:08:37;;;;;;;1.97;0.80;;;30.70;52.90;;;;;;6909084;28;20454;-78
2022/07/02 17:12:00;;;;;;;1.90;0.80;;;30.60;54.40;;;;;;6904035;28;20440;-79
2022/07/02 17:15:23;;;;;;;2.50;1.00;;;30.80;53.80;;;;;;6895754;28;20503;-80
2022/07/02 17:18:45;;;;;;;3.95;1.00;;;30.90;52.90;;;;;;6905531;28;20433;-80
2022/07/02 17:22:08;;;;;;;2.50;1.00;;;30.80;52.60;;;;;;6907844;28;20443;-80
2022/07/02 17:25:31;;;;;;;3.65;1.40;;;30.90;53.60;;;;;;6907293;28;20440;-80
2022/07/02 17:28:54;;;;;;;3.30;1.00;;;30.80;52.20;;;;;;6908708;28;20954;-77
2022/07/02 17:32:16;;;;;;;3.00;0.93;;;30.80;53.00;;;;;;6898848;28;20468;-78
2022/07/02 17:35:39;;;;;;;3.00;1.30;;;31.00;52.40;;;;;;6906906;28;20460;-79
2022/07/02 17:39:01;;;;;;;2.58;1.00;;;31.10;52.20;;;;;;6916050;28;20447;-80
2022/07/02 17:42:23;;;;;;;3.10;1.00;;;31.20;52.40;;;;;;6920178;28;21213;-77